Impacts TAF Board
For situational awareness. Not to be used for flight planning purposes.
IDs:

KEWR - Newark Intl, NJ, US

Issued at 1122 UTC 21 Sep 2018
Updated at 1142 UTC 21 Sep 2018
Potential Impact None Slight Moderate High
Time1051Z 21/12Z 21/13Z 21/14Z 21/15Z 21/16Z 21/17Z 21/18Z 21/19Z 21/20Z 21/21Z 21/22Z 21/23Z 22/00Z>>
Type OBS PRVL PRVL PRVL PRVL PRVL PRVL PRVL PRVL PRVL PRVL PRVL PRVL PRVL
VIS 10 >6 >6 >6 >6 >6 >6 >6 >6 >6 >6 >6 >6 >6
CIG 29 30 30 30 30 35 35 35 35 50 50 50 50 50
Cover OVC BKN BKN BKN BKN BKN BKN BKN BKN BKN BKN BKN BKN BKN
FltCat MVFR MVFR MVFR MVFR MVFR VFR VFR VFR VFR VFR VFR VFR VFR VFR
WX -- -- -- -- -- -- -- -- -- -- -- -- -- --
WDir 180 180 180 180 180 180 180 180 180 180 180 180 180 180
WSpd 6 6 6 6 6 10 10 10 10 12 12 12 12 12
WGst -- -- -- -- -- -- -- -- -- 20 20 20 20 20
Raw TAF
KEWR 211122Z 2112/2218 18006KT P6SM BKN030
  FM211600 18010KT P6SM SCT025 BKN035
  FM212000 18012G20KT P6SM SCT035 BKN050
  FM220300 21012G20KT P6SM SCT035 BKN050
  FM220600 23011KT P6SM BKN050
  FM220900 26010KT P6SM BKN050
  PROB30 2209/2212 -SHRA
  FM221200 33015KT P6SM SCT050


Raw METAR
KEWR 211051Z 18006KT 10SM BKN029 OVC036 20/16 A3025 RMK AO2 SLP244 T02000156 $
KEWR 210951Z 18005KT 10SM BKN029 BKN035 OVC060 20/16 A3025 RMK AO2 SLP242 BKN029 V SCT T02000156 $
KEWR 210851Z 17006KT 10SM BKN027 BKN035 OVC060 20/16 A3024 RMK AO2 SLP240 T02000156 53000 $

METAR Board
Radar Display
Forecast Discussion
For situational awareness. Not to be used for flight planning purposes.